Time;durP1;ratioP1;P1;durP2;ratioP2;P2;SDS_P1;SDS_P2;PMS_P1;PMS_P2;Temp;Humidity;BMP_temperature;BMP_pressure;BME280_temperature;BME280_humidity;BME280_pressure;Samples;Min_cycle;Max_cycle;Signal;HPM_P1;HPM_P2
2022/06/30 00:00:47;;;;;;;12.50;11.10;;;;;;;20.11;76.74;100048.65;130387;1267;108848;-76
2022/06/30 00:03:52;;;;;;;12.40;11.10;;;;;;;20.16;76.79;100038.69;130202;1267;108729;-76
2022/06/30 00:06:57;;;;;;;14.70;12.50;;;;;;;20.21;76.83;100037.56;130277;1268;108784;-78
2022/06/30 00:10:03;;;;;;;14.00;11.80;;;;;;;20.24;76.87;100041.63;130221;1268;108763;-78
2022/06/30 00:13:09;;;;;;;13.30;11.90;;;;;;;20.26;76.90;100043.40;130311;1268;108863;-77
2022/06/30 00:16:14;;;;;;;13.20;11.20;;;;;;;20.29;76.84;100045.50;130247;1268;107123;-78
2022/06/30 00:19:20;;;;;;;11.80;10.60;;;;;;;20.27;76.84;100046.27;130292;1268;108643;-79
2022/06/30 00:22:26;;;;;;;12.20;11.00;;;;;;;20.29;76.93;100047.83;130254;1268;108102;-77
2022/06/30 00:25:31;;;;;;;12.80;11.50;;;;;;;20.30;76.86;100039.84;130243;1268;108833;-77
2022/06/30 00:28:36;;;;;;;13.20;11.90;;;;;;;20.29;76.83;100033.41;130255;1268;108695;-77
2022/06/30 00:31:42;;;;;;;12.80;10.50;;;;;;;20.22;77.04;100032.77;130191;1268;108764;-77
2022/06/30 00:34:47;;;;;;;11.70;10.50;;;;;;;20.13;77.24;100021.54;130266;1268;108919;-76
2022/06/30 00:37:52;;;;;;;12.50;11.00;;;;;;;20.13;77.37;100022.45;130290;1268;108932;-75
2022/06/30 00:40:57;;;;;;;11.80;10.60;;;;;;;20.16;77.54;100021.69;130288;1267;107703;-74
2022/06/30 00:44:02;;;;;;;13.20;11.90;;;;;;;20.19;77.36;100024.50;130309;1268;109260;-73
2022/06/30 00:47:10;;;;;;;12.90;10.90;;;;;;;20.17;77.47;100020.97;130186;1268;108717;-74
2022/06/30 00:50:16;;;;;;;10.80;9.70;;;;;;;20.11;77.61;100025.91;130284;1268;107373;-75
2022/06/30 00:53:22;;;;;;;12.40;11.20;;;;;;;20.06;77.68;100020.98;130257;1268;108714;-76
2022/06/30 00:56:28;;;;;;;11.60;10.50;;;;;;;19.97;77.79;100023.63;130213;1268;108680;-77
2022/06/30 00:59:36;;;;;;;11.50;10.40;;;;;;;19.92;77.95;100020.42;130231;1268;108679;-75
2022/06/30 01:02:42;;;;;;;11.60;10.40;;;;;;;19.92;77.96;100025.58;130203;1268;108907;-77
2022/06/30 01:05:48;;;;;;;10.90;9.80;;;;;;;19.93;78.15;100034.74;130230;1268;108787;-77
2022/06/30 01:08:54;;;;;;;11.10;10.00;;;;;;;19.85;78.17;100034.98;130233;1268;107616;-76
2022/06/30 01:15:19;;;;;;;13.10;11.80;;;;;;;19.72;78.63;100015.30;130089;1268;108757;-77
2022/06/30 01:18:25;;;;;;;11.90;10.80;;;;;;;19.81;78.72;100009.01;130250;1268;108590;-77
2022/06/30 01:21:30;;;;;;;11.60;10.30;;;;;;;19.87;78.59;100009.01;130218;1267;108852;-77
2022/06/30 01:24:36;;;;;;;11.00;9.90;;;;;;;19.93;78.64;100007.75;130217;1267;108680;-78
2022/06/30 01:27:41;;;;;;;12.80;11.30;;;;;;;19.98;78.59;100004.58;130178;1267;109025;-77
2022/06/30 01:30:47;;;;;;;12.20;11.00;;;;;;;20.00;78.64;99998.98;130196;1268;108723;-78
2022/06/30 01:33:53;;;;;;;12.00;10.50;;;;;;;19.97;78.58;100004.34;130244;1267;108625;-79
2022/06/30 01:36:59;;;;;;;11.60;10.40;;;;;;;19.89;78.79;100002.58;130196;1268;108650;-79
2022/06/30 01:40:05;;;;;;;12.80;11.50;;;;;;;19.87;78.72;99995.67;130248;1268;107770;-79
2022/06/30 01:43:13;;;;;;;13.80;12.40;;;;;;;19.72;79.45;99988.11;130186;1268;106841;-79
2022/06/30 01:46:22;;;;;;;14.00;11.90;;;;;;;19.68;79.40;99987.38;130237;1268;108950;-79
2022/06/30 01:49:27;;;;;;;13.10;11.70;;;;;;;19.64;79.57;99979.86;130145;1268;108888;-78
2022/06/30 01:52:32;;;;;;;13.20;11.30;;;;;;;19.59;79.55;99978.82;130262;1268;108961;-80
2022/06/30 01:55:38;;;;;;;12.90;11.30;;;;;;;19.58;79.66;99975.73;130315;1268;108955;-80
2022/06/30 01:58:43;;;;;;;12.00;10.80;;;;;;;19.61;79.61;99970.85;130233;1268;108816;-76
2022/06/30 02:01:48;;;;;;;12.70;11.20;;;;;;;19.66;79.49;99972.37;130269;1268;108729;-78
2022/06/30 02:04:53;;;;;;;12.10;10.80;;;;;;;19.71;79.74;99974.38;130232;1266;108711;-75
2022/06/30 02:07:59;;;;;;;10.70;9.60;;;;;;;19.75;79.62;99975.40;130269;1268;108155;-78
2022/06/30 02:11:04;;;;;;;12.20;11.00;;;;;;;19.73;79.52;99977.45;130271;1268;108895;-77
2022/06/30 02:14:09;;;;;;;13.60;12.20;;;;;;;19.69;79.60;99982.00;130229;1268;108969;-76
2022/06/30 02:17:14;;;;;;;12.40;11.20;;;;;;;19.64;79.87;99987.41;130264;1268;108696;-79
2022/06/30 02:20:23;;;;;;;12.50;10.80;;;;;;;19.66;80.00;99978.77;130371;1267;108638;-77
2022/06/30 02:23:28;;;;;;;13.70;11.20;;;;;;;19.71;79.93;99974.71;130299;1268;108395;-77
2022/06/30 02:26:34;;;;;;;13.90;11.70;;;;;;;19.78;79.99;99979.45;130285;1268;108784;-77
2022/06/30 02:29:39;;;;;;;13.40;11.20;;;;;;;19.89;80.00;99984.84;130311;1268;109099;-79
2022/06/30 02:32:44;;;;;;;12.00;10.70;;;;;;;19.96;79.75;99977.77;130269;1268;108902;-81
2022/06/30 02:35:49;;;;;;;11.80;10.10;;;;;;;20.01;79.77;99971.89;130230;1269;107892;-79
2022/06/30 02:38:55;;;;;;;10.70;9.50;;;;;;;20.08;79.70;99972.38;130201;1269;108741;-79
2022/06/30 02:42:00;;;;;;;13.00;11.70;;;;;;;20.12;79.70;99972.84;130215;1268;108699;-78
2022/06/30 02:45:07;;;;;;;13.70;12.30;;;;;;;20.05;79.97;99979.41;130243;1268;108814;-76
2022/06/30 02:48:13;;;;;;;14.40;13.00;;;;;;;20.03;80.18;99982.05;130235;1268;108251;-80
2022/06/30 02:51:18;;;;;;;12.60;11.30;;;;;;;20.00;80.43;99980.70;130202;1269;107622;-78
2022/06/30 02:54:24;;;;;;;10.20;9.20;;;;;;;20.01;80.47;99983.34;130216;1268;108811;-76
2022/06/30 02:57:29;;;;;;;11.70;10.50;;;;;;;20.09;80.31;99985.53;130231;1268;106749;-75
2022/06/30 03:00:34;;;;;;;12.90;10.70;;;;;;;20.17;80.11;99985.00;130227;1270;107666;-77
2022/06/30 03:03:40;;;;;;;12.40;11.10;;;;;;;20.28;80.00;99979.84;130400;1267;107652;-77
2022/06/30 03:06:45;;;;;;;13.70;12.30;;;;;;;20.32;79.84;99982.85;132017;1267;108682;-77
2022/06/30 03:09:50;;;;;;;12.80;11.40;;;;;;;20.26;79.94;99989.71;131432;1267;107057;-75
2022/06/30 03:12:55;;;;;;;12.90;11.00;;;;;;;20.24;80.18;99993.77;130230;1270;107680;-78
2022/06/30 03:16:01;;;;;;;13.40;12.00;;;;;;;20.19;80.27;100004.44;130225;1270;108750;-78
2022/06/30 03:19:06;;;;;;;14.70;13.00;;;;;;;20.02;80.48;100006.66;130246;1269;108717;-78
2022/06/30 03:22:12;;;;;;;14.80;13.20;;;;;;;19.88;80.74;100004.29;130250;1269;108766;-77
2022/06/30 03:25:17;;;;;;;14.20;12.20;;;;;;;19.77;81.09;99996.17;130178;1269;108499;-77
2022/06/30 03:28:23;;;;;;;12.90;11.60;;;;;;;19.89;81.20;100001.58;130158;1268;108895;-79
2022/06/30 03:31:28;;;;;;;13.20;11.90;;;;;;;20.07;81.04;100005.30;130242;1269;107707;-77
2022/06/30 03:34:33;;;;;;;14.30;12.80;;;;;;;20.19;80.91;100000.16;130203;1269;108763;-78
2022/06/30 03:37:39;;;;;;;15.50;13.90;;;;;;;20.27;80.94;99997.60;130221;1268;108694;-78
2022/06/30 03:40:44;;;;;;;13.40;11.30;;;;;;;20.32;80.83;99994.20;130167;1268;108795;-76
2022/06/30 03:43:49;;;;;;;12.40;11.20;;;;;;;20.42;80.96;99984.92;130318;1267;108739;-77
2022/06/30 03:46:55;;;;;;;12.90;11.60;;;;;;;20.57;80.86;99977.15;130331;1267;108994;-79
2022/06/30 03:50:00;;;;;;;16.40;12.50;;;;;;;20.74;80.96;99978.00;130447;1267;108778;-77
2022/06/30 03:53:05;;;;;;;14.00;12.60;;;;;;;20.94;80.62;99987.90;130471;1267;106962;-76
2022/06/30 03:56:11;;;;;;;15.00;12.60;;;;;;;21.06;80.52;99993.34;130380;1267;108681;-75
2022/06/30 03:59:16;;;;;;;14.00;12.60;;;;;;;21.07;80.65;100013.91;130444;1267;108691;-80
2022/06/30 04:02:21;;;;;;;16.10;14.10;;;;;;;20.83;81.18;100062.92;130420;1267;108754;-79
2022/06/30 04:05:26;;;;;;;15.90;14.30;;;;;;;20.39;82.17;100075.64;130479;1267;108818;-79
2022/06/30 04:08:31;;;;;;;18.30;16.40;;;;;;;20.17;82.16;100050.98;130480;1267;108742;-79
2022/06/30 04:11:37;;;;;;;17.70;15.90;;;;;;;20.02;83.79;100089.96;130190;1270;108710;-79
2022/06/30 04:14:42;;;;;;;17.90;15.10;;;;;;;19.74;84.25;100094.09;130450;1267;108831;-78
2022/06/30 04:17:47;;;;;;;17.60;15.70;;;;;;;19.68;84.11;100084.27;130202;1268;108812;-79
2022/06/30 04:20:52;;;;;;;17.40;15.60;;;;;;;19.63;85.84;100125.36;130441;1267;108624;-78
2022/06/30 04:23:57;;;;;;;16.40;14.70;;;;;;;19.57;84.68;100112.04;130474;1267;108710;-82
2022/06/30 04:27:03;;;;;;;16.70;14.90;;;;;;;19.84;84.36;100079.88;130454;1267;108873;-81
2022/06/30 04:30:09;;;;;;;17.90;14.80;;;;;;;19.96;85.37;100125.42;130431;1267;108985;-83
2022/06/30 04:33:14;;;;;;;16.60;14.90;;;;;;;19.85;86.13;100129.07;130521;1267;108743;-82
2022/06/30 04:36:20;;;;;;;17.90;15.00;;;;;;;19.87;85.16;100084.11;130535;1267;108695;-82
2022/06/30 04:39:25;;;;;;;16.70;15.10;;;;;;;20.04;85.51;100104.88;130434;1267;108954;-79
2022/06/30 04:42:30;;;;;;;14.80;13.20;;;;;;;19.91;86.18;100120.58;130453;1267;108768;-81
2022/06/30 04:45:35;;;;;;;14.20;12.70;;;;;;;19.95;85.64;100088.34;130574;1267;108684;-79
2022/06/30 04:48:40;;;;;;;14.90;13.30;;;;;;;20.26;85.30;100088.13;130450;1267;108877;-81
2022/06/30 04:51:46;;;;;;;19.10;15.50;;;;;;;20.31;85.26;100108.92;130508;1267;108766;-80
2022/06/30 04:54:51;;;;;;;14.40;12.80;;;;;;;20.26;85.02;100073.91;130469;1267;108862;-82
2022/06/30 04:57:56;;;;;;;14.40;12.90;;;;;;;20.56;84.65;100050.71;130513;1267;108947;-81
2022/06/30 05:01:02;;;;;;;15.00;13.40;;;;;;;20.83;84.36;100075.61;130470;1267;108851;-80
2022/06/30 05:04:07;;;;;;;14.00;12.50;;;;;;;20.79;84.13;100090.13;130486;1267;107634;-81
2022/06/30 05:07:13;;;;;;;15.70;13.80;;;;;;;20.67;84.23;100070.69;130531;1267;108182;-81
2022/06/30 05:10:18;;;;;;;15.70;13.40;;;;;;;20.86;84.20;100063.77;130312;1268;108664;-81
2022/06/30 05:13:23;;;;;;;16.50;13.70;;;;;;;21.02;83.86;100081.83;130261;1268;109081;-79
2022/06/30 05:16:28;;;;;;;15.60;14.00;;;;;;;20.96;83.81;100086.90;130217;1268;108721;-81
2022/06/30 05:19:34;;;;;;;20.20;18.20;;;;;;;20.89;84.25;100068.36;130237;1268;108805;-81
2022/06/30 05:22:39;;;;;;;18.60;16.80;;;;;;;20.93;84.44;100056.39;130361;1268;108766;-81
2022/06/30 05:29:07;;;;;;;13.80;12.20;;;;;;;20.97;84.41;100064.16;130310;1268;108706;-81
2022/06/30 05:32:12;;;;;;;14.20;12.60;;;;;;;21.03;84.50;100063.98;130307;1269;107702;-80
2022/06/30 05:35:18;;;;;;;14.60;13.10;;;;;;;21.12;84.28;100066.42;130297;1268;107408;-81
2022/06/30 05:38:23;;;;;;;14.10;12.00;;;;;;;21.08;84.42;100058.02;130308;1268;108687;-81
2022/06/30 05:41:28;;;;;;;14.10;12.70;;;;;;;21.11;84.41;100053.38;130296;1269;108728;-81
2022/06/30 05:44:34;;;;;;;14.80;13.40;;;;;;;21.20;84.18;100066.00;130317;1270;108639;-82
2022/06/30 05:47:47;;;;;;;16.00;14.30;;;;;;;21.23;84.23;100082.59;130404;1268;107282;-81
2022/06/30 05:50:52;;;;;;;14.10;12.70;;;;;;;21.22;84.42;100090.58;130328;1269;108863;-80
2022/06/30 05:53:58;;;;;;;13.10;11.80;;;;;;;21.30;84.29;100086.09;130309;1268;108953;-80
2022/06/30 05:57:03;;;;;;;15.50;13.90;;;;;;;21.42;84.37;100103.45;130346;1268;108825;-81
2022/06/30 06:00:11;;;;;;;14.90;13.20;;;;;;;21.41;84.23;100124.20;130330;1268;108997;-81
2022/06/30 06:03:17;;;;;;;15.20;13.70;;;;;;;21.32;84.34;100117.42;130450;1268;108555;-81
2022/06/30 06:06:22;;;;;;;14.30;12.90;;;;;;;21.31;84.44;100107.12;130398;1269;108925;-81
2022/06/30 06:09:27;;;;;;;13.90;12.40;;;;;;;21.37;84.46;100101.66;130318;1270;108824;-81
2022/06/30 06:12:32;;;;;;;14.10;12.50;;;;;;;21.43;84.51;100105.48;130287;1268;108682;-81
2022/06/30 06:15:37;;;;;;;16.40;12.90;;;;;;;21.49;84.43;100105.67;130373;1268;108717;-79
2022/06/30 06:18:43;;;;;;;13.40;12.10;;;;;;;21.61;84.41;100110.23;130267;1268;108543;-79
2022/06/30 06:21:48;;;;;;;13.50;12.00;;;;;;;21.76;84.47;100114.38;130250;1268;108644;-81
2022/06/30 06:24:53;;;;;;;13.10;11.70;;;;;;;21.85;84.18;100113.54;130320;1268;107124;-81
2022/06/30 06:31:21;;;;;;;16.30;12.30;;;;;;;22.35;83.55;100101.51;130294;1268;108792;-81
2022/06/30 06:34:27;;;;;;;15.70;13.60;;;;;;;22.68;83.00;100098.01;130356;1268;108668;-82
2022/06/30 06:37:32;;;;;;;14.80;12.80;;;;;;;22.86;82.07;100091.55;130371;1268;108932;-81
2022/06/30 06:40:37;;;;;;;15.00;12.70;;;;;;;22.99;81.73;100087.53;130301;1270;107147;-79
2022/06/30 06:43:42;;;;;;;14.10;12.30;;;;;;;23.15;81.22;100085.23;130248;1269;108739;-79
2022/06/30 06:46:47;;;;;;;14.00;12.50;;;;;;;23.34;81.25;100097.48;130228;1268;108811;-80
2022/06/30 06:49:53;;;;;;;15.30;13.70;;;;;;;23.48;80.74;100098.66;130280;1268;108954;-79
2022/06/30 06:52:58;;;;;;;14.00;11.70;;;;;;;23.38;80.22;100090.33;130291;1268;107627;-81
2022/06/30 06:56:04;;;;;;;18.10;12.00;;;;;;;23.40;81.21;100087.23;130352;1268;108763;-81
2022/06/30 06:59:09;;;;;;;14.50;12.80;;;;;;;23.53;80.14;100085.77;130237;1268;108642;-80
2022/06/30 07:02:15;;;;;;;13.90;12.60;;;;;;;23.69;79.91;100079.86;130343;1268;108948;-79
2022/06/30 07:05:20;;;;;;;14.40;13.00;;;;;;;23.77;80.17;100068.48;130318;1268;108840;-81
2022/06/30 07:08:25;;;;;;;13.60;12.20;;;;;;;23.95;79.80;100063.95;130337;1268;107679;-80
2022/06/30 07:11:30;;;;;;;13.80;12.40;;;;;;;24.14;80.42;100056.92;130266;1268;108895;-80
2022/06/30 07:14:35;;;;;;;13.60;12.20;;;;;;;24.27;78.97;100062.70;130263;1268;108736;-80
2022/06/30 07:17:41;;;;;;;12.80;11.60;;;;;;;24.26;79.22;100058.91;130344;1270;106983;-80
2022/06/30 07:20:46;;;;;;;13.60;12.30;;;;;;;24.38;78.92;100055.29;130284;1268;108762;-80
2022/06/30 07:23:51;;;;;;;13.40;12.10;;;;;;;24.48;78.77;100052.55;130348;1268;108874;-80
2022/06/30 07:26:56;;;;;;;13.70;12.50;;;;;;;24.71;78.65;100050.17;130291;1270;108681;-80
2022/06/30 07:30:02;;;;;;;13.20;11.90;;;;;;;24.95;78.57;100050.00;130268;1268;108707;-81
2022/06/30 07:33:07;;;;;;;12.40;11.30;;;;;;;25.06;77.29;100049.98;130318;1267;108773;-82
2022/06/30 07:36:13;;;;;;;12.40;11.20;;;;;;;25.07;77.10;100053.64;130316;1268;109011;-79
2022/06/30 07:39:19;;;;;;;13.10;11.80;;;;;;;25.16;77.44;100048.36;130315;1268;108696;-80
2022/06/30 07:42:25;;;;;;;13.10;11.60;;;;;;;25.40;77.82;100044.99;130369;1268;108794;-80
2022/06/30 07:45:31;;;;;;;14.00;11.90;;;;;;;25.54;76.61;100040.71;130369;1270;108562;-80
2022/06/30 07:48:37;;;;;;;14.20;12.50;;;;;;;25.65;76.75;100040.77;130335;1269;108871;-82
2022/06/30 07:51:42;;;;;;;13.20;11.80;;;;;;;25.77;76.09;100033.78;130381;1268;108614;-80
2022/06/30 07:54:48;;;;;;;13.90;12.10;;;;;;;25.83;76.29;100026.68;130332;1268;108761;-80
2022/06/30 07:57:54;;;;;;;12.20;10.90;;;;;;;25.92;75.72;100024.26;130319;1269;107661;-80
2022/06/30 08:01:00;;;;;;;13.50;12.30;;;;;;;25.98;75.52;100026.89;130421;1268;108840;-80
2022/06/30 08:04:06;;;;;;;12.80;11.60;;;;;;;25.99;75.34;100020.66;130415;1270;107913;-80
2022/06/30 08:07:12;;;;;;;12.60;11.40;;;;;;;26.00;75.26;100021.10;130432;1268;108670;-82
2022/06/30 08:10:23;;;;;;;13.70;12.50;;;;;;;26.13;75.10;100023.07;130310;1270;108914;-81
2022/06/30 08:13:29;;;;;;;13.20;11.90;;;;;;;26.28;74.24;100019.29;130325;1268;108649;-80
2022/06/30 08:16:35;;;;;;;13.80;12.50;;;;;;;26.35;74.41;100021.69;130300;1269;109325;-80
2022/06/30 08:19:41;;;;;;;13.80;12.40;;;;;;;26.38;72.75;100015.52;130316;1268;107435;-81
2022/06/30 08:22:47;;;;;;;13.20;12.00;;;;;;;26.39;72.62;100011.71;130337;1268;108771;-81
2022/06/30 08:25:54;;;;;;;13.40;12.20;;;;;;;26.45;73.54;100009.44;130396;1267;107696;-80
2022/06/30 08:29:00;;;;;;;13.60;11.70;;;;;;;26.53;72.67;100007.85;130381;1267;107680;-80
2022/06/30 08:32:08;;;;;;;13.00;11.70;;;;;;;26.59;73.06;100007.23;130340;1267;107789;-79
2022/06/30 08:35:14;;;;;;;13.10;11.90;;;;;;;26.63;72.70;100010.11;130430;1267;108427;-80
2022/06/30 08:38:21;;;;;;;13.00;11.60;;;;;;;26.66;72.32;100019.39;130190;1270;107844;-81
2022/06/30 08:48:10;;;;;;;14.40;12.90;;;;;;;26.94;72.61;100007.25;130274;1268;107880;-82
2022/06/30 08:51:17;;;;;;;12.90;11.80;;;;;;;27.01;72.23;100003.33;130277;1268;108607;-81
2022/06/30 08:54:25;;;;;;;12.10;10.90;;;;;;;27.02;71.95;99999.66;130313;1270;108951;-81
2022/06/30 08:57:33;;;;;;;12.00;10.90;;;;;;;27.10;72.37;99998.80;130229;1268;107795;-81
2022/06/30 09:00:40;;;;;;;13.30;12.00;;;;;;;27.16;71.95;99999.27;130260;1268;108621;-82
2022/06/30 09:03:50;;;;;;;12.60;11.50;;;;;;;27.24;72.01;99998.83;130305;1268;107694;-81
2022/06/30 09:06:57;;;;;;;12.80;11.70;;;;;;;27.30;71.58;99997.91;130305;1268;107936;-81
2022/06/30 09:10:05;;;;;;;13.60;12.20;;;;;;;27.30;71.54;99996.15;130284;1268;107556;-82
2022/06/30 09:13:11;;;;;;;12.40;11.10;;;;;;;27.26;71.41;99996.65;130280;1268;107778;-81
2022/06/30 09:16:17;;;;;;;12.90;11.10;;;;;;;27.30;71.97;99993.75;130248;1268;108731;-80
2022/06/30 09:19:23;;;;;;;11.90;10.90;;;;;;;27.39;71.47;99989.22;130356;1268;108568;-80
2022/06/30 09:22:30;;;;;;;12.10;11.10;;;;;;;27.47;71.21;99990.33;130258;1269;108703;-80
2022/06/30 09:25:41;;;;;;;12.50;11.30;;;;;;;27.58;70.95;99987.92;130229;1268;107594;-83
2022/06/30 09:28:51;;;;;;;11.50;10.40;;;;;;;27.66;69.96;99987.66;130293;1268;108759;-81
2022/06/30 09:31:57;;;;;;;13.00;11.80;;;;;;;27.67;70.06;99989.81;130300;1270;107648;-81
2022/06/30 09:35:11;;;;;;;12.50;11.40;;;;;;;27.72;70.09;99987.45;130282;1268;107837;-81
2022/06/30 09:38:18;;;;;;;13.60;12.20;;;;;;;27.85;70.23;99987.12;130461;1271;107675;-81
2022/06/30 09:41:31;;;;;;;13.70;12.40;;;;;;;27.92;69.44;99984.20;130283;1268;108758;-80
2022/06/30 09:44:36;;;;;;;11.60;10.50;;;;;;;27.91;68.52;99989.41;130373;1268;108857;-81
2022/06/30 09:47:55;;;;;;;13.20;12.10;;;;;;;27.92;69.02;99991.15;130265;1268;109915;-81
2022/06/30 09:51:18;;;;;;;11.70;10.60;;;;;;;27.97;69.17;99992.56;130289;1268;110804;-81
2022/06/30 09:54:25;;;;;;;13.50;11.30;;;;;;;28.05;68.51;99987.36;130292;1268;107758;-83
2022/06/30 09:57:37;;;;;;;11.10;10.20;;;;;;;28.13;68.73;99989.11;130314;1268;108682;-82
2022/06/30 10:00:47;;;;;;;12.90;11.70;;;;;;;28.21;68.75;99984.92;130407;1268;108845;-81
2022/06/30 10:04:02;;;;;;;12.60;11.50;;;;;;;28.32;68.03;99983.03;130358;1268;108682;-81
2022/06/30 10:07:07;;;;;;;13.00;11.80;;;;;;;28.35;67.94;99983.85;130423;1268;108643;-81
2022/06/30 10:10:15;;;;;;;13.00;11.80;;;;;;;28.44;67.91;99982.41;130354;1268;109523;-81
2022/06/30 10:13:21;;;;;;;13.10;12.10;;;;;;;28.53;67.41;99982.18;130291;1268;108758;-81
2022/06/30 10:16:30;;;;;;;12.90;11.70;;;;;;;28.50;67.18;99978.88;130332;1268;108829;-81
2022/06/30 10:19:36;;;;;;;13.00;11.80;;;;;;;28.51;67.41;99978.23;130333;1268;108780;-82
2022/06/30 10:22:42;;;;;;;12.80;11.70;;;;;;;28.58;66.74;99973.77;130375;1268;108771;-82
2022/06/30 10:25:49;;;;;;;13.00;11.70;;;;;;;28.65;66.80;99971.66;130339;1268;108687;-81
2022/06/30 10:28:54;;;;;;;12.60;11.50;;;;;;;28.74;66.91;99972.77;130321;1268;108680;-82
2022/06/30 10:32:08;;;;;;;12.90;11.70;;;;;;;28.85;65.89;99975.31;130372;1268;107733;-81
2022/06/30 10:35:23;;;;;;;13.00;12.00;;;;;;;28.96;65.75;99973.88;130348;1268;108707;-82
2022/06/30 10:38:36;;;;;;;12.50;11.40;;;;;;;29.12;66.31;99970.79;130378;1268;108997;-83
2022/06/30 10:41:48;;;;;;;12.60;11.50;;;;;;;29.31;65.45;99963.66;130325;1268;108701;-81
2022/06/30 10:44:53;;;;;;;12.80;11.50;;;;;;;29.36;65.07;99962.20;130356;1268;108680;-81
2022/06/30 10:48:00;;;;;;;13.00;11.60;;;;;;;29.35;65.60;99964.35;130360;1268;108756;-83
2022/06/30 10:51:15;;;;;;;12.60;11.50;;;;;;;29.39;65.21;99963.55;130351;1268;108866;-83
2022/06/30 10:54:32;;;;;;;13.40;12.20;;;;;;;29.39;65.40;99961.90;130355;1268;107669;-81
2022/06/30 10:58:02;;;;;;;12.30;11.20;;;;;;;29.47;65.51;99964.04;130364;1268;108791;-82
2022/06/30 11:01:11;;;;;;;12.70;11.50;;;;;;;29.51;63.96;99963.02;130383;1268;108882;-83
2022/06/30 11:04:24;;;;;;;11.60;10.60;;;;;;;29.55;63.86;99960.86;130388;1268;108856;-82
2022/06/30 11:07:30;;;;;;;12.00;11.00;;;;;;;29.60;64.25;99953.17;130370;1267;108501;-81
2022/06/30 11:10:35;;;;;;;14.00;12.70;;;;;;;29.60;63.30;99953.83;130335;1268;108175;-81
2022/06/30 11:13:40;;;;;;;12.20;11.10;;;;;;;29.47;63.70;99954.37;130358;1268;108767;-79
2022/06/30 11:16:48;;;;;;;14.20;12.90;;;;;;;29.42;63.64;99952.52;130365;1268;108854;-82
2022/06/30 11:20:02;;;;;;;13.10;11.90;;;;;;;29.39;63.55;99949.20;130323;1268;108757;-82
2022/06/30 11:23:07;;;;;;;13.20;12.00;;;;;;;29.45;63.06;99950.53;130417;1268;108597;-82
2022/06/30 11:29:43;;;;;;;14.40;13.00;;;;;;;29.42;62.46;99945.48;129738;1268;222272;-81
2022/06/30 11:32:49;;;;;;;13.10;12.00;;;;;;;29.31;62.65;99945.85;130380;1268;108634;-81
2022/06/30 11:36:09;;;;;;;12.90;11.70;;;;;;;29.39;62.62;99941.29;130425;1268;108113;-83
2022/06/30 11:39:17;;;;;;;12.40;11.30;;;;;;;29.52;62.60;99935.25;130325;1268;109007;-81
2022/06/30 11:42:23;;;;;;;12.20;11.00;;;;;;;29.60;61.92;99926.11;130393;1268;108873;-81
2022/06/30 11:45:30;;;;;;;13.90;12.60;;;;;;;29.62;61.62;99931.77;130421;1268;108798;-82
2022/06/30 11:48:38;;;;;;;12.80;11.60;;;;;;;29.60;61.73;99928.52;130853;1268;108802;-80
2022/06/30 11:51:43;;;;;;;13.40;12.10;;;;;;;29.59;61.63;99922.66;130459;1268;108918;-82
2022/06/30 11:54:52;;;;;;;12.90;11.80;;;;;;;29.64;61.52;99919.64;130324;1268;108742;-81
2022/06/30 11:57:58;;;;;;;13.40;12.20;;;;;;;29.64;61.80;99920.52;130349;1268;109070;-82
2022/06/30 12:01:17;;;;;;;12.50;11.40;;;;;;;29.68;60.67;99916.69;130370;1268;108712;-82
2022/06/30 12:04:22;;;;;;;13.70;12.40;;;;;;;29.79;61.36;99910.57;130331;1268;108734;-81
2022/06/30 12:07:30;;;;;;;13.20;11.90;;;;;;;29.84;61.31;99908.55;130398;1268;108862;-81
2022/06/30 12:10:37;;;;;;;12.90;11.70;;;;;;;29.80;61.31;99904.45;130353;1268;109321;-81
2022/06/30 12:13:43;;;;;;;13.50;12.30;;;;;;;29.78;61.34;99901.56;130359;1268;108871;-82
2022/06/30 12:16:54;;;;;;;13.60;12.30;;;;;;;29.80;61.35;99903.15;130427;1268;108931;-82
2022/06/30 12:20:00;;;;;;;13.20;12.00;;;;;;;29.86;60.75;99901.27;130351;1268;108708;-82
2022/06/30 12:23:06;;;;;;;13.30;12.20;;;;;;;29.85;60.78;99903.97;130337;1268;108654;-81
2022/06/30 12:26:12;;;;;;;12.60;11.60;;;;;;;29.75;61.03;99897.45;130381;1267;108885;-81
2022/06/30 12:29:19;;;;;;;13.50;12.30;;;;;;;29.69;61.37;99893.40;130382;1267;108814;-81
2022/06/30 12:32:24;;;;;;;15.90;13.30;;;;;;;29.74;61.50;99891.86;130425;1267;108025;-80
2022/06/30 12:35:32;;;;;;;14.60;13.30;;;;;;;29.85;61.49;99885.10;130355;1268;107627;-82
2022/06/30 12:38:37;;;;;;;14.50;13.30;;;;;;;29.96;61.01;99887.80;130450;1267;108019;-80
2022/06/30 12:41:43;;;;;;;14.50;13.10;;;;;;;30.01;60.25;99881.30;130296;1268;108720;-81
2022/06/30 12:44:49;;;;;;;15.30;13.90;;;;;;;29.94;60.57;99876.05;130332;1268;108643;-82
2022/06/30 12:47:54;;;;;;;13.40;12.20;;;;;;;30.05;60.19;99873.72;130353;1267;108946;-81
2022/06/30 12:51:00;;;;;;;14.10;12.80;;;;;;;30.00;59.78;99872.17;130335;1268;108905;-81
2022/06/30 12:54:07;;;;;;;13.20;12.10;;;;;;;29.99;60.11;99872.86;130429;1267;109712;-82
2022/06/30 12:57:12;;;;;;;13.70;12.40;;;;;;;30.01;60.11;99869.25;130449;1268;108585;-82
2022/06/30 13:00:18;;;;;;;14.00;11.90;;;;;;;29.95;60.17;99873.50;130450;1267;108869;-80
2022/06/30 13:03:24;;;;;;;13.90;12.60;;;;;;;29.90;60.09;99874.44;130422;1267;108994;-82
2022/06/30 13:06:32;;;;;;;14.40;13.20;;;;;;;29.87;60.02;99872.96;130437;1267;108990;-81
2022/06/30 13:09:40;;;;;;;14.00;12.80;;;;;;;29.88;59.96;99874.23;130427;1267;108757;-81
2022/06/30 13:12:46;;;;;;;13.70;12.50;;;;;;;29.92;59.89;99869.67;130387;1267;108821;-82
2022/06/30 13:15:51;;;;;;;13.80;12.60;;;;;;;29.84;60.03;99868.73;130506;1268;107425;-82
2022/06/30 13:18:58;;;;;;;13.90;12.50;;;;;;;29.83;60.16;99864.71;130388;1268;108685;-81
2022/06/30 13:22:06;;;;;;;13.10;12.00;;;;;;;29.84;59.72;99857.78;130457;1267;108620;-81
2022/06/30 13:25:11;;;;;;;14.60;13.40;;;;;;;29.84;60.06;99849.04;130462;1267;108687;-81
2022/06/30 13:28:17;;;;;;;15.00;13.70;;;;;;;29.98;59.76;99849.47;130368;1267;108751;-81
2022/06/30 13:31:23;;;;;;;14.20;12.90;;;;;;;30.14;59.57;99853.48;130431;1267;108882;-81
2022/06/30 13:34:30;;;;;;;14.20;13.00;;;;;;;30.23;59.19;99856.73;130395;1268;108637;-82
2022/06/30 13:37:37;;;;;;;14.10;13.00;;;;;;;30.26;58.94;99862.96;130337;1268;107567;-81
2022/06/30 13:40:42;;;;;;;13.50;12.30;;;;;;;30.21;59.21;99863.48;130403;1266;108673;-82
2022/06/30 13:43:48;;;;;;;14.30;13.10;;;;;;;30.18;58.96;99859.15;130368;1267;108761;-82
2022/06/30 13:46:53;;;;;;;14.20;12.80;;;;;;;30.21;59.06;99853.39;130367;1267;108741;-82
2022/06/30 13:49:59;;;;;;;13.60;12.40;;;;;;;30.28;58.79;99853.05;130464;1267;107072;-82
2022/06/30 13:53:04;;;;;;;14.20;12.80;;;;;;;30.33;58.78;99850.67;130377;1267;108883;-81
2022/06/30 13:56:09;;;;;;;14.20;12.80;;;;;;;30.48;58.45;99848.29;130331;1267;108739;-82
2022/06/30 13:59:15;;;;;;;13.60;12.50;;;;;;;30.70;58.35;99845.13;130444;1267;108731;-81
2022/06/30 14:02:20;;;;;;;14.30;13.00;;;;;;;30.89;58.89;99845.80;130429;1268;107570;-81
2022/06/30 14:05:26;;;;;;;14.20;12.90;;;;;;;31.06;58.40;99841.20;130441;1267;108889;-81
2022/06/30 14:08:32;;;;;;;13.00;11.90;;;;;;;31.17;57.66;99839.91;130415;1267;108810;-81
2022/06/30 14:11:38;;;;;;;13.20;12.00;;;;;;;31.26;57.91;99839.15;130443;1267;108608;-80